Time;durP1;ratioP1;P1;durP2;ratioP2;P2;SDS_P1;SDS_P2;PMS_P1;PMS_P2;Temp;Humidity;BMP_temperature;BMP_pressure;BME280_temperature;BME280_humidity;BME280_pressure;Samples;Min_cycle;Max_cycle;Signal;HPM_P1;HPM_P2
2022/10/02 00:01:55;;;;;;;15.83;3.23;;;13.90;89.80;;;;;;4954849;28;20991;-89
2022/10/02 00:04:31;;;;;;;8.07;2.37;;;13.90;89.80;;;;;;4948678;28;20554;-88
2022/10/02 00:07:03;;;;;;;6.47;2.57;;;13.90;89.80;;;;;;4956031;28;20446;-89
2022/10/02 00:09:41;;;;;;;9.40;2.70;;;13.90;89.80;;;;;;4955190;28;20525;-89
2022/10/02 00:12:13;;;;;;;13.60;2.40;;;14.00;89.80;;;;;;4973548;28;20492;-89
2022/10/02 00:14:42;;;;;;;8.93;3.40;;;13.90;89.80;;;;;;4977145;28;20470;-89
2022/10/02 00:17:24;;;;;;;7.70;2.73;;;13.90;89.80;;;;;;4954852;28;20552;-89
2022/10/02 00:19:55;;;;;;;7.37;2.20;;;13.90;89.80;;;;;;4970203;28;21355;-89
2022/10/02 00:22:30;;;;;;;11.77;6.27;;;13.90;89.80;;;;;;4958831;28;20529;-89
2022/10/02 00:25:03;;;;;;;8.13;4.50;;;14.00;89.80;;;;;;4955699;28;20501;-89
2022/10/02 00:27:48;;;;;;;6.20;3.10;;;14.00;89.80;;;;;;4955517;28;20804;-89
2022/10/02 00:30:16;;;;;;;8.60;3.63;;;14.10;89.80;;;;;;4973639;28;20468;-89
2022/10/02 00:32:52;;;;;;;8.27;2.80;;;14.10;89.80;;;;;;4953212;28;20443;-89
2022/10/02 00:35:24;;;;;;;4.43;3.00;;;14.20;89.80;;;;;;4970068;28;20524;-89
2022/10/02 00:38:16;;;;;;;6.70;2.80;;;14.30;89.80;;;;;;4953457;28;20466;-89
2022/10/02 00:40:54;;;;;;;5.80;2.90;;;14.30;89.80;;;;;;4957007;28;20991;-89
2022/10/02 00:43:47;;;;;;;6.47;2.63;;;14.30;89.80;;;;;;4954430;28;20450;-89
2022/10/02 00:46:20;;;;;;;5.60;2.63;;;14.30;89.80;;;;;;4970134;28;21078;-89
2022/10/02 00:49:07;;;;;;;7.73;3.07;;;14.30;89.80;;;;;;4954366;28;20456;-89
2022/10/02 00:51:55;;;;;;;10.20;2.83;;;14.30;89.80;;;;;;4952724;28;20466;-89
2022/10/02 00:54:47;;;;;;;4.97;2.50;;;14.40;89.80;;;;;;4969000;28;20466;-89
2022/10/02 00:57:46;;;;;;;7.20;3.20;;;14.40;89.80;;;;;;4968299;28;20525;-89
2022/10/02 01:00:18;;;;;;;5.00;2.50;;;14.40;89.80;;;;;;4872532;28;20505;-89
2022/10/02 01:03:09;;;;;;;7.53;2.20;;;14.30;89.80;;;;;;4968395;28;21496;-89
2022/10/02 01:05:36;;;;;;;4.23;2.17;;;14.30;89.80;;;;;;4952250;28;20458;-89
2022/10/02 01:08:04;;;;;;;5.43;2.63;;;14.30;89.80;;;;;;4955380;28;20505;-89
2022/10/02 01:10:32;;;;;;;8.30;2.60;;;14.40;89.80;;;;;;4954856;28;20536;-89
2022/10/02 01:12:59;;;;;;;10.53;3.83;;;14.40;89.80;;;;;;4971970;28;21058;-89
2022/10/02 01:15:33;;;;;;;14.47;3.40;;;14.50;89.60;;;;;;4954507;28;20454;-89
2022/10/02 01:18:03;;;;;;;8.77;2.77;;;14.50;89.30;;;;;;4970494;28;20489;-89
2022/10/02 01:20:43;;;;;;;8.20;3.40;;;14.60;89.20;;;;;;4971193;28;20490;-89
2022/10/02 01:23:33;;;;;;;6.80;2.87;;;14.50;89.50;;;;;;4974464;28;21034;-89
2022/10/02 01:26:00;;;;;;;6.33;2.60;;;14.50;89.40;;;;;;4970236;28;21047;-89
2022/10/02 01:28:27;;;;;;;7.50;2.40;;;14.50;89.30;;;;;;4954276;28;20463;-88
2022/10/02 01:31:00;;;;;;;12.13;2.50;;;14.60;89.10;;;;;;4968676;28;20872;-89
2022/10/02 01:33:27;;;;;;;5.33;1.93;;;14.60;88.80;;;;;;4969099;28;20469;-89
2022/10/02 01:35:54;;;;;;;10.63;2.20;;;14.70;88.50;;;;;;4970685;28;20520;-89
2022/10/02 01:38:23;;;;;;;7.87;2.10;;;14.60;88.70;;;;;;4951356;28;20851;-89
2022/10/02 01:40:50;;;;;;;9.73;2.60;;;14.60;88.80;;;;;;4969420;28;20984;-89
2022/10/02 01:43:34;;;;;;;4.50;1.93;;;14.60;88.90;;;;;;4956170;28;20516;-89
2022/10/02 01:46:19;;;;;;;12.37;3.47;;;14.60;88.90;;;;;;4970306;28;20466;-89
2022/10/02 01:48:49;;;;;;;6.33;2.27;;;14.60;88.90;;;;;;4950998;28;20554;-89
2022/10/02 01:51:33;;;;;;;5.00;2.10;;;14.70;88.30;;;;;;4950994;28;20466;-89
2022/10/02 01:54:00;;;;;;;8.03;2.37;;;14.60;88.40;;;;;;4950848;28;20504;-89
2022/10/02 01:56:37;;;;;;;6.03;2.47;;;14.60;88.40;;;;;;4968907;28;20873;-89
2022/10/02 01:59:22;;;;;;;8.70;2.50;;;14.60;88.50;;;;;;4953012;28;20454;-89
2022/10/02 02:02:16;;;;;;;9.20;2.60;;;14.60;88.60;;;;;;4951296;28;20963;-89
2022/10/02 02:04:46;;;;;;;8.53;2.33;;;14.60;88.70;;;;;;4953285;28;20624;-89
2022/10/02 02:07:27;;;;;;;10.30;2.70;;;14.50;88.50;;;;;;4970142;28;20462;-89
2022/10/02 02:10:08;;;;;;;6.10;2.60;;;14.60;88.60;;;;;;4954252;28;20517;-89
2022/10/02 02:12:42;;;;;;;5.60;1.97;;;14.60;88.50;;;;;;4972844;28;20516;-89
2022/10/02 02:15:27;;;;;;;10.43;2.50;;;14.60;88.40;;;;;;4953717;28;20506;-88
2022/10/02 02:18:00;;;;;;;5.97;1.80;;;14.60;88.30;;;;;;4970893;28;20540;-89
2022/10/02 02:20:37;;;;;;;7.50;2.10;;;14.60;88.40;;;;;;4954872;28;20490;-89
2022/10/02 02:23:11;;;;;;;6.87;2.60;;;14.60;88.30;;;;;;4970201;28;20454;-89
2022/10/02 02:25:44;;;;;;;7.67;2.10;;;14.60;88.40;;;;;;4957793;28;20450;-89
2022/10/02 02:28:13;;;;;;;11.57;2.50;;;14.60;88.30;;;;;;4951626;28;21157;-89
2022/10/02 02:30:44;;;;;;;4.80;2.27;;;14.60;88.30;;;;;;4966977;28;20469;-89
2022/10/02 02:33:17;;;;;;;5.83;2.40;;;14.60;88.30;;;;;;4954019;28;20552;-89
2022/10/02 02:35:47;;;;;;;9.87;2.90;;;14.60;88.20;;;;;;4952950;28;20466;-89
2022/10/02 02:38:23;;;;;;;17.83;2.87;;;14.60;88.50;;;;;;4968126;28;20808;-89
2022/10/02 02:40:50;;;;;;;8.00;2.33;;;14.50;88.60;;;;;;4955480;28;20544;-89
2022/10/02 02:43:43;;;;;;;8.67;4.07;;;14.50;88.80;;;;;;4960763;28;20503;-86
2022/10/02 02:47:02;;;;;;;7.33;2.40;;;14.50;88.70;;;;;;4968337;28;20870;-85
2022/10/02 02:49:24;;;;;;;5.13;1.90;;;14.50;88.70;;;;;;4970804;28;20818;-85
2022/10/02 02:51:53;;;;;;;8.70;3.00;;;14.50;88.80;;;;;;4956408;28;21022;-85
2022/10/02 02:54:35;;;;;;;7.17;2.20;;;14.50;88.90;;;;;;4954889;28;20866;-85
2022/10/02 02:57:04;;;;;;;12.60;2.83;;;14.40;89.00;;;;;;4975126;28;20501;-85
2022/10/02 02:59:32;;;;;;;9.87;2.97;;;14.40;89.30;;;;;;4956052;28;20462;-85
2022/10/02 03:01:59;;;;;;;4.40;2.60;;;14.40;89.30;;;;;;4969491;28;20494;-85
2022/10/02 03:04:26;;;;;;;11.40;2.10;;;14.50;89.20;;;;;;4970786;28;20948;-85
2022/10/02 03:06:59;;;;;;;5.57;2.20;;;14.40;89.20;;;;;;4955193;28;20524;-85
2022/10/02 03:09:28;;;;;;;4.03;1.97;;;14.40;89.30;;;;;;4955026;28;21106;-85
2022/10/02 03:12:07;;;;;;;5.50;2.60;;;14.40;89.30;;;;;;4952534;28;21018;-85
2022/10/02 03:15:05;;;;;;;7.40;2.30;;;14.40;89.20;;;;;;4956317;28;20522;-85
2022/10/02 03:17:57;;;;;;;7.80;2.27;;;14.40;89.20;;;;;;4954573;28;20506;-86
2022/10/02 03:21:14;;;;;;;5.57;2.03;;;14.30;89.50;;;;;;4971111;28;20552;-85
2022/10/02 03:23:49;;;;;;;11.13;2.63;;;14.30;89.70;;;;;;4930170;28;20504;-85
2022/10/02 03:26:28;;;;;;;7.13;3.77;;;14.30;89.60;;;;;;4967774;28;20923;-85
2022/10/02 03:29:00;;;;;;;8.67;2.40;;;14.30;89.80;;;;;;4974596;28;20532;-85
2022/10/02 03:31:31;;;;;;;8.23;3.53;;;14.20;89.80;;;;;;4952983;28;23099;-85
2022/10/02 03:34:00;;;;;;;8.03;3.10;;;14.20;89.80;;;;;;4959330;28;20466;-86
2022/10/02 03:36:27;;;;;;;6.33;1.87;;;14.20;89.80;;;;;;4970053;28;20893;-86
2022/10/02 03:38:57;;;;;;;8.80;3.07;;;14.30;89.80;;;;;;4956254;28;20497;-86
2022/10/02 03:41:44;;;;;;;13.47;6.77;;;14.30;89.80;;;;;;4954744;28;21188;-86
2022/10/02 03:44:11;;;;;;;5.93;2.70;;;14.30;89.80;;;;;;4960100;28;20536;-86
2022/10/02 03:46:38;;;;;;;8.63;2.83;;;14.30;89.80;;;;;;4960332;28;20486;-86
2022/10/02 03:49:05;;;;;;;8.77;2.83;;;14.30;89.70;;;;;;4960194;28;20517;-86
2022/10/02 03:51:32;;;;;;;9.00;2.70;;;14.30;89.80;;;;;;4961211;28;20537;-86
2022/10/02 03:53:58;;;;;;;11.30;3.83;;;14.30;89.80;;;;;;4957226;28;20478;-85
2022/10/02 03:56:45;;;;;;;9.03;2.83;;;14.20;89.80;;;;;;4959631;28;20597;-85
2022/10/02 03:59:18;;;;;;;9.03;2.67;;;14.20;89.80;;;;;;4974620;28;20762;-85
2022/10/02 04:01:53;;;;;;;11.47;3.43;;;14.30;89.80;;;;;;4973882;28;20529;-85
2022/10/02 04:04:43;;;;;;;8.93;2.50;;;14.30;89.80;;;;;;4971963;28;20465;-85
2022/10/02 04:07:16;;;;;;;8.53;3.10;;;14.30;89.80;;;;;;4979441;28;20858;-85
2022/10/02 04:09:57;;;;;;;12.37;3.60;;;14.30;89.80;;;;;;4955839;28;21009;-85
2022/10/02 04:12:27;;;;;;;7.90;3.30;;;14.30;89.80;;;;;;4955357;28;20478;-85
2022/10/02 04:14:59;;;;;;;6.97;2.47;;;14.40;89.80;;;;;;4950244;28;20470;-85
2022/10/02 04:17:29;;;;;;;10.33;3.50;;;14.40;89.80;;;;;;4956526;28;21038;-86
2022/10/02 04:20:02;;;;;;;9.33;3.03;;;14.40;89.50;;;;;;4957190;28;20478;-85
2022/10/02 04:22:59;;;;;;;8.37;2.63;;;14.40;89.50;;;;;;4955742;28;20466;-85
2022/10/02 04:25:32;;;;;;;8.97;2.80;;;14.40;89.50;;;;;;4971969;28;20470;-85
2022/10/02 04:28:05;;;;;;;8.67;3.57;;;14.50;89.40;;;;;;4973073;28;20450;-85
2022/10/02 04:30:31;;;;;;;18.93;3.40;;;14.50;89.50;;;;;;4957047;28;20454;-85
2022/10/02 04:33:12;;;;;;;7.90;3.83;;;14.50;89.70;;;;;;4958135;28;20466;-85
2022/10/02 04:35:52;;;;;;;9.27;3.40;;;14.50;89.70;;;;;;4954914;28;20880;-85
2022/10/02 04:38:37;;;;;;;8.83;3.60;;;14.50;89.60;;;;;;4959360;28;20817;-85
2022/10/02 04:41:55;;;;;;;7.27;3.67;;;14.60;89.30;;;;;;4970272;28;20490;-85
2022/10/02 04:44:41;;;;;;;7.70;3.93;;;14.50;89.60;;;;;;4936081;28;20463;-85
2022/10/02 04:47:19;;;;;;;8.80;4.57;;;14.50;89.40;;;;;;4956179;28;20459;-85
2022/10/02 04:50:20;;;;;;;10.30;3.70;;;14.50;89.70;;;;;;4954373;28;20470;-85
2022/10/02 04:53:11;;;;;;;11.60;6.20;;;14.50;89.80;;;;;;4948192;28;20473;-85
2022/10/02 04:55:50;;;;;;;19.83;9.60;;;14.50;89.80;;;;;;4973356;28;20466;-85
2022/10/02 04:58:24;;;;;;;11.83;5.23;;;14.50;89.80;;;;;;4971048;28;20465;-85
2022/10/02 05:01:07;;;;;;;13.43;5.87;;;14.50;89.80;;;;;;4972243;28;20545;-85
2022/10/02 05:04:04;;;;;;;13.10;5.80;;;14.50;89.80;;;;;;4955774;28;20552;-85
2022/10/02 05:06:36;;;;;;;5.77;3.90;;;14.60;89.70;;;;;;4974512;28;20466;-85
2022/10/02 05:09:23;;;;;;;14.87;4.50;;;14.50;89.80;;;;;;4973483;28;20462;-85
2022/10/02 05:12:16;;;;;;;12.40;3.97;;;14.50;89.80;;;;;;4973794;28;20466;-85
2022/10/02 05:15:11;;;;;;;9.43;3.80;;;14.50;89.80;;;;;;4956340;28;20497;-85
2022/10/02 05:18:09;;;;;;;12.30;4.90;;;14.50;89.80;;;;;;4973696;28;20486;-85
2022/10/02 05:20:51;;;;;;;10.77;4.10;;;14.60;89.80;;;;;;4956042;28;20835;-85
2022/10/02 05:23:56;;;;;;;12.60;4.73;;;14.60;89.80;;;;;;4968778;28;20493;-85
2022/10/02 05:26:55;;;;;;;12.23;4.43;;;14.60;89.80;;;;;;4970692;28;20470;-85
2022/10/02 05:29:53;;;;;;;9.43;4.27;;;14.60;89.80;;;;;;4959677;28;20461;-85
2022/10/02 05:32:37;;;;;;;8.10;4.60;;;14.60;89.80;;;;;;4954907;28;20470;-85
2022/10/02 05:35:07;;;;;;;9.00;5.10;;;14.60;89.80;;;;;;4956685;28;20794;-85
2022/10/02 05:37:45;;;;;;;7.83;4.20;;;14.60;89.80;;;;;;4957079;28;20895;-85
2022/10/02 05:40:31;;;;;;;10.67;4.30;;;14.60;89.80;;;;;;4952835;28;20465;-85
2022/10/02 05:43:10;;;;;;;6.80;4.20;;;14.60;89.80;;;;;;4970786;28;20462;-85
2022/10/02 05:45:42;;;;;;;7.57;4.07;;;14.60;89.80;;;;;;4973488;28;20470;-85
2022/10/02 05:48:41;;;;;;;11.63;4.20;;;14.60;89.80;;;;;;4954233;28;20526;-85
2022/10/02 05:51:17;;;;;;;15.40;4.47;;;14.70;89.80;;;;;;4921023;28;20508;-85
2022/10/02 05:54:30;;;;;;;11.00;3.70;;;14.70;89.80;;;;;;4970589;28;20982;-85
2022/10/02 05:57:03;;;;;;;9.17;4.30;;;14.60;89.80;;;;;;4948233;28;20470;-85
2022/10/02 06:00:00;;;;;;;9.63;4.07;;;14.60;89.80;;;;;;4953942;28;22591;-85
2022/10/02 06:02:46;;;;;;;4.77;3.20;;;14.60;89.80;;;;;;4969256;28;20564;-86
2022/10/02 06:05:34;;;;;;;8.67;3.47;;;14.60;89.80;;;;;;4952027;28;20818;-86
2022/10/02 06:08:05;;;;;;;6.77;2.77;;;14.60;89.80;;;;;;4971222;28;20458;-86
2022/10/02 06:10:41;;;;;;;9.63;3.23;;;14.60;89.80;;;;;;4957292;28;20466;-86
2022/10/02 06:13:14;;;;;;;3.90;2.60;;;14.60;89.80;;;;;;4959310;28;20539;-85
2022/10/02 06:15:51;;;;;;;6.90;2.87;;;14.60;89.80;;;;;;4955364;28;20458;-85
2022/10/02 06:18:25;;;;;;;5.50;2.77;;;14.50;89.80;;;;;;4952549;28;20553;-85
2022/10/02 06:20:57;;;;;;;6.50;2.50;;;14.50;89.80;;;;;;4966387;28;20518;-85
2022/10/02 06:23:30;;;;;;;7.13;2.70;;;14.50;89.80;;;;;;4971982;28;20972;-85
2022/10/02 06:26:01;;;;;;;5.90;2.80;;;14.50;89.80;;;;;;4955890;28;21148;-85
2022/10/02 06:28:40;;;;;;;7.83;2.80;;;14.50;89.80;;;;;;4955116;28;20973;-85
2022/10/02 06:31:12;;;;;;;7.23;3.80;;;14.50;89.80;;;;;;4971323;28;20513;-85
2022/10/02 06:33:39;;;;;;;5.07;2.87;;;14.50;89.80;;;;;;4971764;28;20597;-85
2022/10/02 06:36:15;;;;;;;6.20;2.60;;;14.40;89.80;;;;;;4958850;28;20463;-85
2022/10/02 06:39:12;;;;;;;3.83;2.50;;;14.40;89.80;;;;;;4969832;28;20473;-85
2022/10/02 06:41:53;;;;;;;9.07;3.40;;;14.40;89.80;;;;;;4952720;28;20490;-85
2022/10/02 06:44:49;;;;;;;5.70;2.90;;;14.40;89.80;;;;;;4969739;28;20462;-85
2022/10/02 06:47:34;;;;;;;6.00;2.83;;;14.40;89.80;;;;;;4950454;28;20463;-85
2022/10/02 06:50:27;;;;;;;5.33;2.33;;;14.40;89.80;;;;;;4967433;28;20474;-86
2022/10/02 06:53:09;;;;;;;7.37;2.33;;;14.40;89.80;;;;;;4957321;28;20465;-86
2022/10/02 06:55:50;;;;;;;3.87;2.30;;;14.40;89.80;;;;;;4954604;28;20513;-85
2022/10/02 06:58:49;;;;;;;3.60;2.20;;;14.30;89.80;;;;;;4970339;28;20466;-85
2022/10/02 07:01:56;;;;;;;8.00;2.73;;;14.30;89.80;;;;;;4885216;28;20495;-85
2022/10/02 07:04:56;;;;;;;2.40;1.90;;;14.30;89.80;;;;;;4893277;28;20482;-85
2022/10/02 07:07:40;;;;;;;7.93;3.20;;;14.30;89.80;;;;;;4970625;28;20516;-86
2022/10/02 07:10:20;;;;;;;6.27;2.40;;;14.30;89.80;;;;;;4971360;28;20470;-86
2022/10/02 07:13:11;;;;;;;5.90;3.17;;;14.30;89.80;;;;;;4952571;28;20462;-85
2022/10/02 07:15:44;;;;;;;6.37;2.70;;;14.30;89.80;;;;;;4972558;28;20497;-85
2022/10/02 07:18:28;;;;;;;4.03;2.00;;;14.30;89.80;;;;;;4955301;28;20606;-86
2022/10/02 07:21:23;;;;;;;5.00;2.07;;;14.30;89.80;;;;;;4973084;28;20473;-86
2022/10/02 07:24:28;;;;;;;4.67;2.13;;;14.30;89.80;;;;;;4951280;28;20485;-86
2022/10/02 07:27:03;;;;;;;4.90;1.80;;;14.30;89.80;;;;;;4971083;28;20461;-85
2022/10/02 07:29:49;;;;;;;5.80;2.00;;;14.30;89.80;;;;;;4960147;28;20516;-85
2022/10/02 07:32:29;;;;;;;7.83;3.20;;;14.30;89.80;;;;;;4973789;28;20462;-85
2022/10/02 07:35:05;;;;;;;5.27;2.20;;;14.30;89.80;;;;;;4956094;28;20459;-85
2022/10/02 07:38:04;;;;;;;6.77;4.40;;;14.30;89.80;;;;;;4954232;28;20466;-85
2022/10/02 07:40:49;;;;;;;7.23;3.00;;;14.30;89.80;;;;;;4969568;28;20487;-85
2022/10/02 07:43:46;;;;;;;2.93;1.67;;;14.30;89.80;;;;;;4973075;28;20876;-85
2022/10/02 07:46:33;;;;;;;4.37;1.83;;;14.30;89.80;;;;;;4971943;28;20524;-86
2022/10/02 07:49:35;;;;;;;4.83;2.47;;;14.30;89.80;;;;;;4947966;28;20467;-86
2022/10/02 07:52:34;;;;;;;6.23;2.07;;;14.30;89.80;;;;;;4959519;28;20473;-86
2022/10/02 07:55:19;;;;;;;3.40;2.40;;;14.20;89.80;;;;;;4972113;28;20462;-86
2022/10/02 07:57:52;;;;;;;6.50;2.77;;;14.10;89.80;;;;;;4973640;28;20462;-86
2022/10/02 08:00:23;;;;;;;3.50;2.30;;;14.10;89.80;;;;;;4970232;28;20517;-85
2022/10/02 08:03:11;;;;;;;3.57;2.27;;;14.10;89.80;;;;;;4969616;28;20513;-85
2022/10/02 08:05:46;;;;;;;2.80;2.13;;;14.20;89.80;;;;;;4972401;28;20480;-85
2022/10/02 08:08:38;;;;;;;2.80;1.83;;;14.20;89.80;;;;;;4970636;28;20513;-86
2022/10/02 08:11:27;;;;;;;5.37;2.47;;;14.20;89.80;;;;;;4952591;28;20501;-87
2022/10/02 08:14:18;;;;;;;7.03;2.43;;;14.20;89.80;;;;;;4956761;28;20513;-87
2022/10/02 08:16:49;;;;;;;2.60;1.90;;;14.10;89.80;;;;;;4972542;28;20537;-87
2022/10/02 08:19:28;;;;;;;3.10;1.87;;;14.20;89.80;;;;;;4953848;28;20458;-87
2022/10/02 08:22:08;;;;;;;2.07;1.80;;;14.20;89.80;;;;;;4973450;28;20494;-87
2022/10/02 08:24:44;;;;;;;3.60;2.10;;;14.20;89.80;;;;;;4973486;28;20470;-87
2022/10/02 08:27:19;;;;;;;4.43;2.20;;;14.20;89.80;;;;;;4968778;28;20505;-87
2022/10/02 08:30:02;;;;;;;4.97;2.70;;;14.20;89.80;;;;;;4950253;28;20453;-87
2022/10/02 08:32:35;;;;;;;4.90;2.30;;;14.20;89.80;;;;;;4955077;28;20851;-87
2022/10/02 08:35:13;;;;;;;4.07;3.30;;;14.20;89.80;;;;;;4972051;28;21063;-87
2022/10/02 08:38:11;;;;;;;5.03;2.20;;;14.20;89.80;;;;;;4968073;28;20462;-87
2022/10/02 08:41:07;;;;;;;5.20;2.63;;;14.30;89.80;;;;;;4968046;28;20470;-87
2022/10/02 08:44:09;;;;;;;3.10;2.57;;;14.30;89.80;;;;;;4935701;28;20470;-87
2022/10/02 08:46:55;;;;;;;4.07;2.67;;;14.30;89.80;;;;;;4957068;28;20512;-87
2022/10/02 08:49:40;;;;;;;3.80;2.57;;;14.30;89.80;;;;;;4969645;28;21033;-87
2022/10/02 08:52:24;;;;;;;12.90;5.10;;;14.30;89.80;;;;;;4969136;28;20462;-87
2022/10/02 08:55:15;;;;;;;6.93;3.23;;;14.30;89.80;;;;;;4972424;28;20549;-87
2022/10/02 08:58:19;;;;;;;2.70;2.47;;;14.30;89.80;;;;;;4970061;28;20446;-87
2022/10/02 09:01:23;;;;;;;3.30;2.57;;;14.30;89.80;;;;;;4951764;28;20528;-87
2022/10/02 09:04:30;;;;;;;8.23;3.50;;;14.30;89.80;;;;;;4952949;28;20454;-87
2022/10/02 09:07:15;;;;;;;3.87;2.57;;;14.30;89.80;;;;;;4970850;28;20458;-87
2022/10/02 09:09:41;;;;;;;7.37;3.17;;;14.30;89.80;;;;;;4951531;28;20508;-87
2022/10/02 09:12:23;;;;;;;4.77;2.20;;;14.30;89.80;;;;;;4971765;28;20466;-87
2022/10/02 09:15:10;;;;;;;4.13;2.40;;;14.20;89.80;;;;;;4967690;28;20458;-87
2022/10/02 09:18:01;;;;;;;4.30;2.90;;;14.30;89.80;;;;;;4966578;28;20497;-87
2022/10/02 09:20:48;;;;;;;9.03;3.07;;;14.30;89.80;;;;;;4952198;28;20505;-87
2022/10/02 09:23:30;;;;;;;3.10;2.20;;;14.30;89.80;;;;;;4941103;28;20518;-86
2022/10/02 09:26:18;;;;;;;3.50;2.40;;;14.30;89.80;;;;;;4953898;28;20465;-87
2022/10/02 09:29:06;;;;;;;2.70;1.50;;;14.30;89.80;;;;;;4971606;28;20890;-87
2022/10/02 09:32:02;;;;;;;3.60;1.90;;;14.40;89.80;;;;;;4970591;28;20549;-87
2022/10/02 09:34:51;;;;;;;2.90;2.30;;;14.40;89.80;;;;;;4954235;28;20469;-87
2022/10/02 09:37:53;;;;;;;2.53;2.10;;;14.40;89.80;;;;;;4962607;28;20465;-87
2022/10/02 09:40:54;;;;;;;1.77;1.67;;;14.40;89.80;;;;;;4945694;28;20454;-87
2022/10/02 09:43:54;;;;;;;4.73;2.00;;;14.40;89.80;;;;;;4951005;28;20514;-87
2022/10/02 09:46:25;;;;;;;6.73;2.83;;;14.40;89.80;;;;;;4952662;28;20470;-87
2022/10/02 09:49:16;;;;;;;15.10;9.87;;;14.40;89.80;;;;;;4950656;28;20497;-87
2022/10/02 09:51:52;;;;;;;8.83;5.57;;;14.40;89.80;;;;;;4953438;28;20461;-87
2022/10/02 09:54:24;;;;;;;5.13;3.47;;;14.40;89.80;;;;;;4951395;28;20470;-87
2022/10/02 09:57:16;;;;;;;4.43;2.50;;;14.30;89.80;;;;;;4966031;28;20470;-87
2022/10/02 10:00:20;;;;;;;5.50;2.70;;;14.40;89.80;;;;;;4955057;28;20465;-87
2022/10/02 10:03:21;;;;;;;5.10;2.90;;;14.40;89.80;;;;;;4965929;28;20485;-87
2022/10/02 10:06:22;;;;;;;3.83;3.10;;;14.40;89.80;;;;;;4953762;28;21019;-87
2022/10/02 10:09:07;;;;;;;2.73;2.10;;;14.40;89.80;;;;;;4968896;28;20866;-87
2022/10/02 10:11:46;;;;;;;2.80;2.33;;;14.30;89.80;;;;;;4966254;28;20458;-87
2022/10/02 10:14:39;;;;;;;2.70;2.03;;;14.30;89.80;;;;;;4951650;28;20943;-87
2022/10/02 10:17:18;;;;;;;3.70;2.20;;;14.40;89.80;;;;;;4969821;28;20477;-86
2022/10/02 10:20:13;;;;;;;4.30;1.80;;;14.30;89.80;;;;;;4968426;28;20466;-87
2022/10/02 10:23:01;;;;;;;2.80;1.93;;;14.40;89.80;;;;;;4956447;28;20557;-87
2022/10/02 10:25:49;;;;;;;4.23;2.70;;;14.40;89.80;;;;;;4965518;28;20498;-87
2022/10/02 10:28:18;;;;;;;8.63;4.83;;;14.40;89.80;;;;;;4946415;28;20498;-87
2022/10/02 10:31:23;;;;;;;6.63;4.77;;;14.50;89.80;;;;;;4950554;28;20458;-87
2022/10/02 10:34:20;;;;;;;4.30;2.67;;;14.50;89.80;;;;;;4970286;28;20548;-87
2022/10/02 10:40:15;;;;;;;3.13;2.17;;;14.50;89.80;;;;;;4968696;28;20465;-87
2022/10/02 10:42:56;;;;;;;2.17;2.00;;;14.50;89.80;;;;;;4970101;28;21393;-87
2022/10/02 10:46:05;;;;;;;1.40;1.30;;;14.50;89.80;;;;;;4956491;28;20466;-87
2022/10/02 10:48:35;;;;;;;6.53;1.40;;;14.50;89.80;;;;;;4968823;28;20468;-87
2022/10/02 10:51:20;;;;;;;1.80;1.70;;;14.50;89.80;;;;;;4952215;28;20843;-87
2022/10/02 10:54:20;;;;;;;2.33;1.43;;;14.60;89.80;;;;;;4953549;28;20454;-87
2022/10/02 10:57:03;;;;;;;1.40;1.17;;;14.60;89.80;;;;;;4972469;28;20542;-87
2022/10/02 10:59:54;;;;;;;1.73;1.40;;;14.60;89.80;;;;;;4969732;28;20469;-87
2022/10/02 11:02:53;;;;;;;1.70;1.60;;;14.60;89.80;;;;;;4970336;28;20482;-87
2022/10/02 11:05:46;;;;;;;1.80;1.70;;;14.60;89.80;;;;;;4969197;28;20458;-87
2022/10/02 11:08:33;;;;;;;1.33;1.20;;;14.60;89.80;;;;;;4950562;28;20521;-87
2022/10/02 11:11:31;;;;;;;1.30;1.20;;;14.60;89.80;;;;;;4965924;28;21013;-87
2022/10/02 11:14:11;;;;;;;1.67;1.57;;;14.60;89.80;;;;;;4970410;28;20516;-87
2022/10/02 11:16:59;;;;;;;2.30;1.00;;;14.60;89.80;;;;;;4965820;28;20913;-87
2022/10/02 11:19:47;;;;;;;1.83;1.07;;;14.70;89.80;;;;;;4965674;28;20510;-87
2022/10/02 11:22:36;;;;;;;0.70;0.70;;;14.70;89.80;;;;;;4948619;28;20556;-87
2022/10/02 11:25:14;;;;;;;1.80;1.00;;;14.70;89.80;;;;;;4971273;28;20459;-87
2022/10/02 11:28:20;;;;;;;0.90;0.80;;;14.70;89.80;;;;;;4951070;28;20509;-87
2022/10/02 11:30:53;;;;;;;1.10;0.57;;;14.70;89.80;;;;;;4960579;28;20474;-87
2022/10/02 11:33:47;;;;;;;0.93;0.90;;;14.70;89.80;;;;;;4971480;28;20470;-87
2022/10/02 11:36:40;;;;;;;4.40;1.10;;;14.70;89.80;;;;;;4970337;28;20983;-87
2022/10/02 11:39:20;;;;;;;2.93;0.60;;;14.70;89.80;;;;;;4954530;28;20477;-87
2022/10/02 11:42:04;;;;;;;1.83;1.00;;;14.70;89.80;;;;;;4951566;28;20747;-87
2022/10/02 11:44:41;;;;;;;1.03;0.80;;;14.70;89.80;;;;;;4951051;28;20462;-87
2022/10/02 11:47:27;;;;;;;3.27;0.80;;;14.70;89.80;;;;;;4962907;28;20468;-87
2022/10/02 11:50:43;;;;;;;1.20;1.10;;;14.70;89.80;;;;;;4948017;28;20474;-87
2022/10/02 11:53:19;;;;;;;2.27;1.17;;;14.80;89.80;;;;;;4967740;28;20473;-87
2022/10/02 11:56:04;;;;;;;1.20;0.63;;;14.70;89.80;;;;;;4968427;28;20504;-87
2022/10/02 11:58:49;;;;;;;1.30;1.20;;;14.70;89.80;;;;;;4949883;28;20886;-87
2022/10/02 12:01:34;;;;;;;2.63;0.77;;;14.70;89.80;;;;;;4967568;28;20462;-87
2022/10/02 12:04:21;;;;;;;0.70;0.67;;;14.70;89.80;;;;;;4970453;28;20542;-87
2022/10/02 12:07:14;;;;;;;2.70;1.17;;;14.70;89.80;;;;;;4969132;28;21031;-87
2022/10/02 12:10:15;;;;;;;0.93;0.60;;;14.70;89.80;;;;;;4952661;28;20465;-87
2022/10/02 12:13:16;;;;;;;3.53;1.13;;;14.70;89.80;;;;;;4973324;28;20516;-87
2022/10/02 12:16:07;;;;;;;14.60;11.03;;;14.80;89.80;;;;;;4956407;28;20465;-87
2022/10/02 12:18:40;;;;;;;7.83;6.07;;;14.90;89.80;;;;;;4965724;28;21007;-87
2022/10/02 12:26:59;;;;;;;1.30;1.20;;;14.90;89.80;;;;;;4970288;28;20466;-87
2022/10/02 12:29:52;;;;;;;2.03;1.90;;;14.90;89.80;;;;;;4971956;28;20462;-87
2022/10/02 12:32:35;;;;;;;1.40;1.30;;;14.90;89.80;;;;;;4971724;28;20514;-87
2022/10/02 12:35:23;;;;;;;1.90;1.80;;;14.90;89.80;;;;;;4971248;28;20470;-87
2022/10/02 12:38:05;;;;;;;2.00;1.90;;;14.90;89.80;;;;;;4972597;28;20599;-87
2022/10/02 12:40:55;;;;;;;3.37;1.83;;;14.90;89.80;;;;;;4958975;28;20653;-86
2022/10/02 12:43:54;;;;;;;3.93;2.37;;;14.90;89.80;;;;;;4951742;28;20534;-87
2022/10/02 12:46:42;;;;;;;2.43;1.90;;;14.90;89.80;;;;;;4953929;28;20490;-87
2022/10/02 12:49:48;;;;;;;2.20;1.07;;;15.00;89.80;;;;;;4967285;28;20506;-87
2022/10/02 12:52:31;;;;;;;1.73;1.57;;;15.00;89.80;;;;;;4915790;28;20545;-87
2022/10/02 12:55:30;;;;;;;1.67;1.57;;;15.00;89.80;;;;;;4954353;28;20485;-87
2022/10/02 12:58:39;;;;;;;1.43;1.33;;;15.00;89.80;;;;;;4952680;28;20497;-87
2022/10/02 13:01:11;;;;;;;1.30;1.20;;;15.00;89.80;;;;;;4956052;28;20518;-87
2022/10/02 13:03:54;;;;;;;1.23;0.90;;;15.00;89.80;;;;;;4953395;28;20574;-87
2022/10/02 13:06:42;;;;;;;4.07;1.63;;;15.10;89.80;;;;;;4973224;28;20466;-87
2022/10/02 13:09:14;;;;;;;1.40;1.10;;;15.10;89.80;;;;;;4965633;28;20439;-87
2022/10/02 13:12:02;;;;;;;2.67;1.30;;;15.10;89.80;;;;;;4956240;28;20972;-87
2022/10/02 13:14:43;;;;;;;1.10;0.67;;;15.10;89.80;;;;;;4948737;28;20473;-87
2022/10/02 13:17:35;;;;;;;1.43;1.17;;;15.20;89.80;;;;;;4969609;28;20489;-87
2022/10/02 13:20:14;;;;;;;1.80;1.07;;;15.20;89.80;;;;;;4955837;28;20501;-87
2022/10/02 13:22:59;;;;;;;0.97;0.80;;;15.10;89.80;;;;;;4971224;28;20549;-87
2022/10/02 13:25:25;;;;;;;3.30;1.13;;;15.20;89.80;;;;;;4973140;28;20462;-87
2022/10/02 13:28:12;;;;;;;1.10;0.80;;;15.20;89.80;;;;;;4954731;28;20466;-87
2022/10/02 13:30:56;;;;;;;2.00;0.73;;;15.10;89.80;;;;;;4971202;28;20485;-87
2022/10/02 13:33:49;;;;;;;0.70;0.70;;;15.10;89.80;;;;;;4972490;28;21031;-87
2022/10/02 13:36:38;;;;;;;1.23;0.80;;;15.20;89.80;;;;;;4955499;28;20522;-87
2022/10/02 13:39:19;;;;;;;2.10;0.90;;;15.20;89.80;;;;;;4968433;28;20470;-87
2022/10/02 13:42:17;;;;;;;2.17;0.67;;;15.20;89.80;;;;;;4953332;28;20920;-87
2022/10/02 13:45:02;;;;;;;1.63;0.90;;;15.20;89.80;;;;;;4969445;28;20882;-87
2022/10/02 13:47:50;;;;;;;0.90;0.70;;;15.20;89.80;;;;;;4967263;28;20450;-87
2022/10/02 13:50:41;;;;;;;1.10;1.00;;;15.20;89.80;;;;;;4954437;28;20540;-87
2022/10/02 13:53:14;;;;;;;1.20;1.00;;;15.20;89.80;;;;;;4970815;28;20470;-87
2022/10/02 13:55:46;;;;;;;0.80;0.80;;;15.20;89.80;;;;;;4950619;28;20470;-87
2022/10/02 13:58:22;;;;;;;1.40;1.20;;;15.20;89.80;;;;;;4952430;28;21395;-87
2022/10/02 14:01:10;;;;;;;1.30;0.70;;;15.20;89.80;;;;;;4951925;28;20545;-87
2022/10/02 14:03:40;;;;;;;2.03;0.80;;;15.20;89.80;;;;;;4970353;28;20536;-87
2022/10/02 14:06:19;;;;;;;1.50;1.13;;;15.20;89.80;;;;;;4951691;28;20454;-87
2022/10/02 14:09:01;;;;;;;1.00;0.67;;;15.20;89.80;;;;;;4946706;28;20895;-87
2022/10/02 14:11:30;;;;;;;1.33;1.23;;;15.20;89.80;;;;;;4953892;28;20470;-87
2022/10/02 14:14:31;;;;;;;1.70;1.20;;;15.20;89.80;;;;;;4947301;28;20522;-87
2022/10/02 14:17:11;;;;;;;1.40;1.30;;;15.20;89.80;;;;;;4950984;28;20545;-87